Time;durP1;ratioP1;P1;durP2;ratioP2;P2;SDS_P1;SDS_P2;PMS_P1;PMS_P2;Temp;Humidity;BMP_temperature;BMP_pressure;BME280_temperature;BME280_humidity;BME280_pressure;Samples;Min_cycle;Max_cycle;Signal;HPM_P1;HPM_P2
2023/05/15 00:08:12;;;;;;;8.20;5.30;;;;;;;12.98;70.82;98060.42;436142;1253;108418;-42
2023/05/15 00:18:16;;;;;;;4.10;3.50;;;;;;;12.79;72.49;98059.54;435881;1253;99256;-43
2023/05/15 00:28:19;;;;;;;4.10;3.40;;;;;;;12.68;72.61;98026.95;435825;1253;110648;-42
2023/05/15 00:38:23;;;;;;;2.70;2.50;;;;;;;12.65;73.21;98017.77;435959;1252;109370;-43
2023/05/15 00:48:28;;;;;;;6.90;4.20;;;;;;;12.59;73.71;98019.60;435979;1252;99206;-43
2023/05/15 00:58:33;;;;;;;6.80;3.10;;;;;;;12.47;74.49;97987.96;435862;1251;108018;-43
2023/05/15 01:18:39;;;;;;;2.80;2.60;;;;;;;12.39;74.96;97950.92;436955;1251;111820;-43
2023/05/15 01:28:50;;;;;;;3.40;3.10;;;;;;;12.38;75.01;97944.29;437502;1250;108412;-43
2023/05/15 01:49:08;;;;;;;;;;;;;;;12.27;75.44;97916.96;437549;1260;107694;-42
2023/05/15 01:59:12;;;;;;;5.30;4.10;;;;;;;12.17;76.05;97914.48;437545;1249;98810;-42
2023/05/15 02:09:18;;;;;;;7.60;4.50;;;;;;;12.16;76.29;97907.27;437769;1250;111002;-42
2023/05/15 02:19:22;;;;;;;5.70;4.10;;;;;;;12.14;77.00;97885.70;437617;1247;108061;-41
2023/05/15 02:29:36;;;;;;;5.20;4.70;;;;;;;12.11;77.00;97882.02;437659;1250;99259;-43
2023/05/15 02:39:44;;;;;;;6.10;4.40;;;;;;;12.10;77.60;97863.26;437567;1248;109525;-42
2023/05/15 02:49:49;;;;;;;7.90;5.10;;;;;;;12.18;77.48;97860.69;437475;1260;99285;-42
2023/05/15 02:59:53;;;;;;;12.70;6.80;;;;;;;12.32;77.44;97853.23;437652;1247;112217;-41
2023/05/15 03:09:56;;;;;;;8.20;5.90;;;;;;;12.22;77.82;97836.53;437529;1251;107128;-42
2023/05/15 03:20:04;;;;;;;10.60;6.90;;;;;;;12.27;77.79;97824.45;437442;1247;98011;-42
2023/05/15 03:30:10;;;;;;;6.50;5.10;;;;;;;12.41;77.78;97812.42;437626;1248;107563;-42
2023/05/15 03:40:13;;;;;;;5.20;4.70;;;;;;;12.49;77.72;97794.93;437463;1248;98677;-41
2023/05/15 03:50:16;;;;;;;3.90;3.50;;;;;;;12.51;78.01;97789.00;437101;1250;548346;-43
2023/05/15 04:00:20;;;;;;;3.80;3.20;;;;;;;12.47;78.24;97788.30;437511;1250;108193;-42
2023/05/15 04:10:24;;;;;;;6.70;4.30;;;;;;;12.47;78.87;97780.72;437499;1250;100719;-43
2023/05/15 04:20:28;;;;;;;3.60;3.30;;;;;;;12.49;79.30;97778.34;437481;1250;107903;-41
2023/05/15 04:30:32;;;;;;;5.50;4.10;;;;;;;12.50;79.31;97769.95;437194;1250;98807;-42
2023/05/15 04:40:36;;;;;;;5.40;4.00;;;;;;;12.52;79.55;97759.52;437399;1251;112140;-43
2023/05/15 04:50:43;;;;;;;3.80;3.10;;;;;;;12.57;79.63;97755.88;437378;1248;110840;-42
2023/05/15 05:00:47;;;;;;;3.50;3.20;;;;;;;12.69;79.68;97754.02;437355;1264;99314;-42
2023/05/15 05:10:54;;;;;;;4.50;3.50;;;;;;;12.76;79.55;97752.01;437422;1247;108493;-43
2023/05/15 05:21:02;;;;;;;4.90;3.40;;;;;;;12.89;79.89;97736.58;437655;1246;98836;-42
2023/05/15 05:31:09;;;;;;;4.60;3.00;;;;;;;12.99;79.85;97720.17;437347;1258;112496;-43
2023/05/15 05:41:13;;;;;;;3.60;3.30;;;;;;;13.25;79.79;97718.20;437462;1250;107698;-42
2023/05/15 05:51:17;;;;;;;3.40;2.90;;;;;;;13.29;79.85;97709.97;437470;1251;99202;-41
2023/05/15 06:11:25;;;;;;;4.20;3.40;;;;;;;13.41;80.13;97697.08;437514;1258;99255;-40
2023/05/15 06:21:29;;;;;;;3.90;3.40;;;;;;;13.43;80.33;97690.75;437440;1250;112286;-43
2023/05/15 06:31:33;;;;;;;4.30;3.10;;;;;;;13.44;80.12;97683.47;437447;1248;108829;-43
2023/05/15 06:41:39;;;;;;;2.60;2.40;;;;;;;13.47;80.33;97679.59;437524;1250;99224;-41
2023/05/15 06:51:47;;;;;;;2.40;2.20;;;;;;;13.52;80.30;97667.73;437531;1250;108676;-42
2023/05/15 07:01:51;;;;;;;2.60;2.10;;;;;;;13.64;80.78;97660.88;437447;1251;99218;-42
2023/05/15 07:11:58;;;;;;;3.10;2.70;;;;;;;13.94;80.91;97651.41;437543;1250;110988;-42
2023/05/15 07:22:02;;;;;;;4.70;3.20;;;;;;;14.19;80.70;97641.70;437480;1250;108570;-43
2023/05/15 07:32:10;;;;;;;2.50;2.30;;;;;;;14.26;80.79;97637.81;437612;1250;98005;-41
2023/05/15 07:42:14;;;;;;;4.00;3.10;;;;;;;14.39;80.77;97642.02;437447;1260;108236;-41
2023/05/15 07:52:18;;;;;;;4.30;3.80;;;;;;;14.43;80.57;97642.42;437405;1251;99154;-42
2023/05/15 08:02:22;;;;;;;3.30;3.10;;;;;;;14.32;80.52;97647.08;437434;1251;113045;-42
2023/05/15 08:12:30;;;;;;;2.90;2.70;;;;;;;14.26;80.48;97641.81;437327;1251;108608;-41
2023/05/15 08:22:34;;;;;;;4.00;3.00;;;;;;;14.37;80.54;97635.48;437412;1250;99218;-43
2023/05/15 08:32:42;;;;;;;6.20;3.60;;;;;;;14.40;80.33;97637.66;437426;1260;108065;-43
2023/05/15 08:42:52;;;;;;;5.40;3.90;;;;;;;14.46;80.74;97634.38;437536;1251;98044;-43
2023/05/15 09:03:01;;;;;;;2.50;2.30;;;;;;;14.87;80.73;97643.12;437463;1247;107403;-43
2023/05/15 09:13:11;;;;;;;4.10;2.80;;;;;;;14.79;80.58;97645.98;437699;1251;97918;-43
2023/05/15 09:23:27;;;;;;;3.50;2.70;;;;;;;14.77;80.92;97644.55;437597;1251;107302;-44
2023/05/15 09:33:30;;;;;;;3.20;2.80;;;;;;;14.99;80.80;97646.27;437485;1251;99228;-44
2023/05/15 10:14:01;;;;;;;5.80;2.30;;;;;;;15.35;80.81;97651.30;437586;1251;108505;-42
2023/05/15 10:24:05;;;;;;;3.60;2.40;;;;;;;15.51;80.71;97659.90;437624;1251;99327;-42
2023/05/15 10:34:19;;;;;;;5.30;2.30;;;;;;;15.60;80.40;97663.65;437689;1250;110906;-41
2023/05/15 10:44:26;;;;;;;3.70;3.10;;;;;;;15.83;80.04;97659.96;437546;1257;107238;-42
2023/05/15 10:54:30;;;;;;;3.80;2.40;;;;;;;16.14;79.82;97649.87;437616;1246;97970;-42
2023/05/15 11:04:35;;;;;;;4.00;2.70;;;;;;;16.10;78.96;97644.77;437719;1247;107502;-42
2023/05/15 11:14:39;;;;;;;7.30;3.90;;;;;;;15.70;78.86;97659.80;437611;1251;99263;-42
2023/05/15 11:24:47;;;;;;;9.60;3.20;;;;;;;15.45;78.93;97667.34;437697;1250;111548;-42
2023/05/15 11:34:51;;;;;;;4.20;3.80;;;;;;;15.87;79.21;97663.30;437511;1250;107680;-47
2023/05/15 11:44:57;;;;;;;4.00;3.40;;;;;;;16.21;78.62;97647.95;437546;1245;98605;-43
2023/05/15 11:55:02;;;;;;;8.10;4.10;;;;;;;16.06;77.93;97642.95;437735;1250;107163;-42
2023/05/15 12:15:13;;;;;;;3.60;3.10;;;;;;;17.31;76.60;97608.21;437632;1251;111225;-42
2023/05/15 12:25:17;;;;;;;4.70;3.40;;;;;;;17.91;75.82;97598.79;437594;1247;108140;-41
2023/05/15 12:35:19;;;;;;;3.50;3.20;;;;;;;18.11;74.69;97597.05;437744;1247;99184;-40
2023/05/15 12:45:24;;;;;;;3.80;3.30;;;;;;;18.36;73.06;97596.46;437651;1251;110217;-41
2023/05/15 12:55:33;;;;;;;2.90;2.60;;;;;;;18.24;72.05;97587.00;437634;1250;99230;-42
2023/05/15 13:05:39;;;;;;;3.60;3.30;;;;;;;18.18;71.46;97578.42;437700;1250;112078;-41
2023/05/15 13:15:43;;;;;;;4.20;2.60;;;;;;;18.32;70.87;97577.55;437729;1250;106224;-42
2023/05/15 13:25:47;;;;;;;3.70;3.20;;;;;;;17.87;70.28;97589.39;437723;1248;99212;-42
2023/05/15 13:35:51;;;;;;;6.10;5.30;;;;;;;17.11;70.54;97587.44;437689;1249;108897;-42
2023/05/15 13:45:55;;;;;;;14.20;4.90;;;;;;;16.23;71.28;97608.96;437611;1250;98007;-43
2023/05/15 13:55:59;;;;;;;10.10;4.20;;;;;;;15.22;71.44;97617.08;437566;1250;112057;-44
2023/05/15 14:06:04;;;;;;;9.70;3.50;;;;;;;14.34;72.77;97587.19;437729;1248;108521;-41
2023/05/15 14:16:11;;;;;;;4.70;3.80;;;;;;;14.95;73.75;97585.86;437727;1248;99209;-43
2023/05/15 14:26:15;;;;;;;4.90;2.50;;;;;;;15.45;74.19;97582.55;437594;1248;108570;-42
2023/05/15 14:36:19;;;;;;;2.90;2.70;;;;;;;15.59;74.62;97601.47;437651;1250;98513;-42
2023/05/15 14:46:23;;;;;;;1.80;1.10;;;;;;;15.63;74.64;97620.48;437734;1250;112336;-42
2023/05/15 14:56:30;;;;;;;1.40;1.30;;;;;;;15.38;74.62;97620.63;437682;1247;108295;-42
2023/05/15 15:06:37;;;;;;;0.90;0.70;;;;;;;15.68;74.23;97623.48;437532;1250;99221;-42
2023/05/15 15:16:42;;;;;;;1.40;1.10;;;;;;;16.06;74.02;97615.77;437649;1250;108307;-43
2023/05/15 15:26:47;;;;;;;3.20;1.50;;;;;;;15.86;73.52;97602.98;437677;1250;99228;-43
2023/05/15 15:36:51;;;;;;;0.80;0.80;;;;;;;15.96;73.57;97617.34;437661;1250;111940;-42
2023/05/15 15:46:55;;;;;;;2.10;1.30;;;;;;;15.86;73.39;97626.81;437184;1250;410989;-42
2023/05/15 15:56:59;;;;;;;8.50;1.10;;;;;;;15.74;73.38;97634.64;437639;1250;99210;-42
2023/05/15 16:07:03;;;;;;;1.10;1.00;;;;;;;15.41;73.17;97643.02;437637;1250;108451;-41
2023/05/15 16:17:07;;;;;;;1.00;0.90;;;;;;;14.92;73.37;97672.14;437748;1246;98810;-43
2023/05/15 16:27:14;;;;;;;1.50;0.90;;;;;;;14.52;73.27;97664.23;437659;1250;112264;-40
2023/05/15 16:37:19;;;;;;;13.00;6.60;;;;;;;14.23;73.25;97669.05;437516;1251;108510;-42
2023/05/15 16:47:23;;;;;;;4.40;2.00;;;;;;;14.13;73.53;97677.71;437734;1250;98062;-42
2023/05/15 16:57:27;;;;;;;3.60;2.20;;;;;;;13.96;73.64;97680.38;437618;1250;108556;-42
2023/05/15 17:07:32;;;;;;;4.40;2.80;;;;;;;13.98;73.66;97684.45;437607;1246;99201;-42
2023/05/15 17:17:37;;;;;;;6.90;3.40;;;;;;;13.78;73.57;97697.73;437551;1247;113405;-42
2023/05/15 17:27:41;;;;;;;5.30;3.70;;;;;;;13.61;73.85;97709.81;437653;1250;108547;-40
2023/05/15 17:37:44;;;;;;;5.30;3.80;;;;;;;13.40;74.02;97709.83;437743;1247;99594;-41
2023/05/15 17:47:48;;;;;;;4.50;3.30;;;;;;;13.11;74.43;97709.08;437844;1250;107882;-41
2023/05/15 17:57:52;;;;;;;4.30;3.30;;;;;;;13.19;74.96;97726.43;437686;1247;99221;-41
2023/05/15 18:17:59;;;;;;;5.30;4.40;;;;;;;13.15;75.10;97750.52;437660;1247;109487;-41
2023/05/15 18:28:07;;;;;;;8.00;5.20;;;;;;;13.09;75.54;97762.25;437599;1250;98008;-40
2023/05/15 18:38:14;;;;;;;6.20;4.20;;;;;;;13.03;75.83;97772.03;437504;1250;108833;-41
2023/05/15 18:48:18;;;;;;;5.50;4.30;;;;;;;12.85;76.37;97785.34;437438;1250;99221;-40
2023/05/15 18:58:21;;;;;;;6.80;4.80;;;;;;;12.61;77.17;97795.88;437770;1250;110902;-41
2023/05/15 19:18:32;;;;;;;9.70;7.90;;;;;;;12.65;77.65;97826.05;437634;1250;97954;-41
2023/05/15 19:28:36;;;;;;;11.20;7.30;;;;;;;12.65;77.67;97843.08;437706;1247;108513;-40
2023/05/15 19:38:40;;;;;;;14.50;13.00;;;;;;;12.58;77.86;97854.11;437588;1250;99227;-41
2023/05/15 19:48:47;;;;;;;12.30;8.90;;;;;;;12.49;77.89;97866.95;437527;1250;111807;-43
2023/05/15 19:58:51;;;;;;;8.00;6.00;;;;;;;12.34;77.96;97870.20;437538;1247;107165;-41
2023/05/15 20:08:55;;;;;;;6.60;5.10;;;;;;;12.17;78.20;97863.77;437737;1250;99208;-41
2023/05/15 20:18:59;;;;;;;7.90;4.40;;;;;;;12.10;78.42;97856.10;437654;1250;107346;-41
2023/05/15 20:29:06;;;;;;;3.50;3.20;;;;;;;12.16;78.66;97848.33;437730;1250;97995;-41
2023/05/15 20:39:13;;;;;;;8.20;4.40;;;;;;;12.17;78.53;97839.80;437599;1248;111796;-42
2023/05/15 20:49:17;;;;;;;5.80;4.20;;;;;;;12.16;78.59;97842.18;437586;1250;108609;-41
2023/05/15 20:59:20;;;;;;;5.70;4.70;;;;;;;12.14;78.66;97850.98;437539;1246;99164;-41
2023/05/15 21:09:24;;;;;;;6.00;3.50;;;;;;;12.11;78.65;97847.31;437522;1248;109420;-40
2023/05/15 21:19:28;;;;;;;4.00;3.30;;;;;;;12.12;78.59;97845.40;437579;1249;99246;-41
2023/05/15 21:29:35;;;;;;;5.50;4.00;;;;;;;12.02;78.31;97867.81;437662;1251;111435;-41
2023/05/15 21:39:40;;;;;;;6.10;4.80;;;;;;;11.85;78.38;97866.29;437574;1250;108382;-42
2023/05/15 21:49:44;;;;;;;7.20;5.10;;;;;;;11.63;78.50;97867.55;437488;1250;97950;-45
2023/05/15 21:59:47;;;;;;;8.20;5.60;;;;;;;11.48;78.69;97879.95;437517;1246;108890;-41
2023/05/15 22:09:52;;;;;;;10.20;6.30;;;;;;;11.43;78.94;97893.67;437530;1250;99268;-39
2023/05/15 22:30:00;;;;;;;7.70;5.20;;;;;;;11.26;78.98;97913.23;437553;1250;108446;-41
2023/05/15 22:40:09;;;;;;;5.50;4.70;;;;;;;11.30;79.14;97918.06;437427;1250;99371;-41
2023/05/15 22:50:37;;;;;;;12.10;5.20;;;;;;;11.35;79.28;97913.20;437626;1248;108708;-41
2023/05/15 23:00:41;;;;;;;8.20;4.20;;;;;;;11.22;79.27;97917.26;437547;1250;99100;-41
2023/05/15 23:10:45;;;;;;;7.00;5.40;;;;;;;11.18;79.54;97917.70;437561;1250;111812;-41
2023/05/15 23:20:49;;;;;;;7.60;6.60;;;;;;;11.25;79.59;97922.41;437405;1250;107754;-41
2023/05/15 23:30:53;;;;;;;7.00;6.00;;;;;;;11.17;79.56;97927.80;437404;1250;99321;-42
2023/05/15 23:40:57;;;;;;;11.50;6.80;;;;;;;11.13;79.58;97925.95;437483;1250;107663;-40
2023/05/15 23:51:01;;;;;;;10.60;7.60;;;;;;;11.03;79.53;97923.59;437541;1251;98033;-40
